Time;durP1;ratioP1;P1;durP2;ratioP2;P2;SDS_P1;SDS_P2;PMS_P1;PMS_P2;Temp;Humidity;BMP_temperature;BMP_pressure;BME280_temperature;BME280_humidity;BME280_pressure;Samples;Min_cycle;Max_cycle;Signal;HPM_P1;HPM_P2
2023/02/15 00:01:23;;;;;;;;;;;;;;;22.03;18.54;98902.38;5072792;28;1634;-78
2023/02/15 00:03:48;;;;;;;;;;;;;;;22.15;18.42;98901.81;5077267;28;1973;-78
2023/02/15 00:06:14;;;;;;;;;;;;;;;22.12;18.55;98905.50;5075949;28;1505;-78
2023/02/15 00:08:40;;;;;;;;;;;;;;;22.63;18.21;98900.66;5076898;28;885;-78
2023/02/15 00:11:05;;;;;;;;;;;;;;;22.80;17.61;98891.06;5077388;28;887;-79
2023/02/15 00:13:31;;;;;;;;;;;;;;;22.95;17.55;98902.19;5077165;28;941;-78
2023/02/15 00:16:03;;;;;;;;;;;;;;;22.83;17.67;98895.88;5076214;28;1347;-79
2023/02/15 00:18:29;;;;;;;;;;;;;;;22.28;18.30;98900.03;5109590;28;932;-78
2023/02/15 00:20:54;;;;;;;;;;;;;;;22.00;18.49;98892.69;5109704;28;862;-78
2023/02/15 00:23:20;;;;;;;;;;;;;;;22.13;18.54;98897.84;5076699;28;1898;-78
2023/02/15 00:25:45;;;;;;;;;;;;;;;22.30;18.44;98886.22;5076772;28;1136;-78
2023/02/15 00:28:10;;;;;;;;;;;;;;;22.33;18.10;98885.38;5076791;28;894;-78
2023/02/15 00:30:36;;;;;;;;;;;;;;;22.63;17.76;98887.28;5075638;28;1881;-78
2023/02/15 00:33:01;;;;;;;;;;;;;;;22.70;17.73;98894.91;5075676;28;1052;-78
2023/02/15 00:35:27;;;;;;;;;;;;;;;22.67;17.88;98892.91;5076438;28;929;-78
2023/02/15 00:37:52;;;;;;;;;;;;;;;22.81;17.48;98883.38;5075090;28;944;-78
2023/02/15 00:40:18;;;;;;;;;;;;;;;22.49;18.11;98890.38;5076705;28;945;-79
2023/02/15 00:42:43;;;;;;;;;;;;;;;22.07;18.49;98892.63;5076268;28;1976;-78
2023/02/15 00:45:09;;;;;;;;;;;;;;;21.75;18.96;98893.03;5061441;28;1860;-78
2023/02/15 00:47:34;;;;;;;;;;;;;;;22.05;18.49;98894.25;5056006;28;950;-78
2023/02/15 00:50:00;;;;;;;;;;;;;;;22.68;17.91;98891.66;5056794;28;944;-79
2023/02/15 00:52:25;;;;;;;;;;;;;;;22.74;18.08;98895.66;5055080;28;1940;-79
2023/02/15 00:54:50;;;;;;;;;;;;;;;22.30;18.17;98889.03;5056337;28;894;-78
2023/02/15 00:57:16;;;;;;;;;;;;;;;21.99;18.64;98884.63;5056345;28;956;-78
2023/02/15 00:59:41;;;;;;;;;;;;;;;22.38;18.48;98877.59;5054987;28;1193;-78
2023/02/15 01:02:07;;;;;;;;;;;;;;;22.54;18.05;98883.41;5055922;28;1646;-79
2023/02/15 01:04:32;;;;;;;;;;;;;;;22.50;17.95;98891.19;5056006;28;1914;-78
2023/02/15 01:06:58;;;;;;;;;;;;;;;22.24;18.32;98879.44;5055041;28;1150;-79
2023/02/15 01:09:23;;;;;;;;;;;;;;;22.27;18.43;98875.72;5056261;28;879;-78
2023/02/15 01:11:49;;;;;;;;;;;;;;;22.34;18.23;98860.66;5056010;28;838;-78
2023/02/15 01:14:14;;;;;;;;;;;;;;;22.59;18.05;98860.25;5055976;28;925;-79
2023/02/15 01:16:40;;;;;;;;;;;;;;;22.44;18.23;98854.00;5055408;28;1938;-79
2023/02/15 01:19:06;;;;;;;;;;;;;;;22.33;18.64;98859.84;5055927;28;1041;-78
2023/02/15 01:21:34;;;;;;;;;;;;;;;22.14;18.36;98863.38;5055774;28;919;-78
2023/02/15 01:24:00;;;;;;;;;;;;;;;22.76;17.95;98884.66;5055728;28;1882;-79
2023/02/15 01:26:25;;;;;;;;;;;;;;;23.09;17.72;98882.06;5056370;28;867;-78
2023/02/15 01:28:51;;;;;;;;;;;;;;;22.19;18.28;98884.78;5054871;28;1117;-79
2023/02/15 01:31:17;;;;;;;;;;;;;;;22.45;18.42;98868.97;5054836;28;1878;-79
2023/02/15 01:33:44;;;;;;;;;;;;;;;22.41;18.23;98865.41;5054624;28;1169;-79
2023/02/15 01:36:09;;;;;;;;;;;;;;;22.68;17.77;98856.81;5054774;28;1113;-79
2023/02/15 01:38:35;;;;;;;;;;;;;;;22.42;18.38;98855.66;5055421;28;1040;-78
2023/02/15 01:43:45;;;;;;;;;;;;;;;22.75;17.94;98862.41;5055337;28;1942;-79
2023/02/15 01:46:11;;;;;;;;;;;;;;;22.70;18.17;98866.53;5060847;28;1856;-78
2023/02/15 01:48:36;;;;;;;;;;;;;;;22.26;18.30;98871.28;5107928;28;927;-78
2023/02/15 01:51:02;;;;;;;;;;;;;;;22.99;17.82;98868.88;5093889;28;1923;-78
2023/02/15 01:53:34;;;;;;;;;;;;;;;22.41;18.20;98865.41;5093334;28;929;-78
2023/02/15 01:56:09;;;;;;;;;;;;;;;22.45;18.08;98854.81;5060124;28;1584;-78
2023/02/15 01:58:35;;;;;;;;;;;;;;;22.42;18.09;98850.78;5059417;28;1800;-78
2023/02/15 02:01:03;;;;;;;;;;;;;;;22.88;17.60;98858.50;5093098;28;1521;-78
2023/02/15 02:03:50;;;;;;;;;;;;;;;22.53;18.06;98857.06;5060006;28;1910;-78
2023/02/15 02:06:15;;;;;;;;;;;;;;;22.55;17.90;98859.50;5076329;28;1026;-78
2023/02/15 02:08:41;;;;;;;;;;;;;;;23.10;17.35;98855.28;5093309;28;946;-78
2023/02/15 02:11:11;;;;;;;;;;;;;;;23.26;17.49;98863.06;5076607;28;1098;-78
2023/02/15 02:13:37;;;;;;;;;;;;;;;22.47;18.15;98866.50;5078119;28;1064;-79
2023/02/15 02:16:34;;;;;;;;;;;;;;;23.02;17.56;98865.16;5096719;28;1756;-78
2023/02/15 02:19:07;;;;;;;;;;;;;;;22.73;18.03;98871.31;5040042;28;1275;-78
2023/02/15 02:21:50;;;;;;;;;;;;;;;22.90;17.98;98871.47;5056630;28;1067;-78
2023/02/15 02:24:24;;;;;;;;;;;;;;;22.70;17.98;98871.41;5039306;28;1971;-78
2023/02/15 02:26:52;;;;;;;;;;;;;;;22.85;17.64;98876.41;5016988;28;989;-78
2023/02/15 02:29:40;;;;;;;;;;;;;;;23.01;17.56;98869.25;5000454;28;1162;-78
2023/02/15 02:32:24;;;;;;;;;;;;;;;22.99;17.63;98868.88;5016430;28;1077;-78
2023/02/15 02:34:56;;;;;;;;;;;;;;;22.43;18.12;98874.25;5000032;28;1091;-78
2023/02/15 02:37:22;;;;;;;;;;;;;;;21.90;18.72;98870.97;4983758;28;986;-78
2023/02/15 02:39:52;;;;;;;;;;;;;;;22.32;18.18;98868.75;5000256;28;1066;-79
2023/02/15 02:42:20;;;;;;;;;;;;;;;22.74;18.20;98870.13;5016401;28;1188;-77
2023/02/15 02:44:53;;;;;;;;;;;;;;;22.86;17.72;98872.31;4983224;28;2345;-78
2023/02/15 02:47:24;;;;;;;;;;;;;;;22.65;17.94;98872.69;4984019;28;1126;-78
2023/02/15 02:49:51;;;;;;;;;;;;;;;22.99;17.70;98871.72;5016305;28;1431;-78
2023/02/15 02:52:36;;;;;;;;;;;;;;;22.77;17.85;98882.63;4983691;28;954;-78
2023/02/15 02:55:05;;;;;;;;;;;;;;;23.10;17.54;98877.97;5039893;28;1308;-79
2023/02/15 02:57:31;;;;;;;;;;;;;;;22.58;17.98;98887.78;5042731;28;1262;-78
2023/02/15 02:59:56;;;;;;;;;;;;;;;22.24;18.67;98879.44;5046406;28;1950;-78
2023/02/15 03:02:24;;;;;;;;;;;;;;;22.28;18.48;98891.53;5042549;28;1296;-78
2023/02/15 03:04:57;;;;;;;;;;;;;;;23.20;17.57;98888.34;5042752;28;1907;-78
2023/02/15 03:07:23;;;;;;;;;;;;;;;23.04;17.73;98885.41;5058922;28;1677;-78
2023/02/15 03:09:50;;;;;;;;;;;;;;;22.21;18.44;98880.28;5056593;28;968;-78
2023/02/15 03:12:23;;;;;;;;;;;;;;;22.73;17.88;98888.34;5073844;28;1334;-78
2023/02/15 03:14:52;;;;;;;;;;;;;;;22.21;18.58;98885.94;5074787;28;1451;-78
2023/02/15 03:17:18;;;;;;;;;;;;;;;22.71;18.20;98887.19;5072362;28;1039;-78
2023/02/15 03:19:44;;;;;;;;;;;;;;;22.50;18.24;98891.19;5055306;28;1059;-78
2023/02/15 03:22:13;;;;;;;;;;;;;;;23.26;17.39;98892.28;5055648;28;1130;-78
2023/02/15 03:25:02;;;;;;;;;;;;;;;22.66;18.02;98877.13;5054476;28;1960;-78
2023/02/15 03:27:30;;;;;;;;;;;;;;;22.84;17.64;98888.94;5041813;28;1723;-78
2023/02/15 03:29:56;;;;;;;;;;;;;;;22.72;18.30;98886.75;5038777;28;1734;-78
2023/02/15 03:32:22;;;;;;;;;;;;;;;22.98;17.74;98887.13;5038628;28;2012;-78
2023/02/15 03:34:48;;;;;;;;;;;;;;;22.79;17.89;98892.28;5038341;28;1663;-78
2023/02/15 03:37:15;;;;;;;;;;;;;;;23.07;17.54;98884.53;5038778;28;884;-78
2023/02/15 03:39:54;;;;;;;;;;;;;;;22.59;18.00;98894.28;5038403;28;1079;-78
2023/02/15 03:42:22;;;;;;;;;;;;;;;23.47;17.40;98908.13;5034995;28;1105;-78
2023/02/15 03:44:50;;;;;;;;;;;;;;;22.65;18.02;98909.56;5033281;28;1964;-78
2023/02/15 03:47:17;;;;;;;;;;;;;;;22.69;18.30;98896.13;5015211;28;987;-78
2023/02/15 03:49:45;;;;;;;;;;;;;;;23.05;17.49;98895.50;4999153;28;882;-78
2023/02/15 03:52:10;;;;;;;;;;;;;;;23.03;17.95;98886.63;4998991;28;1065;-78
2023/02/15 03:54:42;;;;;;;;;;;;;;;23.08;17.61;98891.81;4998759;28;998;-78
2023/02/15 04:02:40;;;;;;;;;;;;;;;23.13;17.85;98911.19;4994908;28;1744;-78
2023/02/15 04:05:05;;;;;;;;;;;;;;;22.27;18.54;98912.56;4964374;28;1968;-78
2023/02/15 04:07:31;;;;;;;;;;;;;;;22.64;18.28;98913.66;4975658;28;1098;-78
2023/02/15 04:12:40;;;;;;;;;;;;;;;22.99;18.00;98914.28;4975881;28;1058;-78
2023/02/15 04:17:50;;;;;;;;;;;;;;;22.88;18.06;98918.09;5002362;28;1485;-79
2023/02/15 04:25:43;;;;;;;;;;;;;;;22.86;18.15;98917.72;5034310;28;1196;-78
2023/02/15 04:28:08;;;;;;;;;;;;;;;22.99;17.69;98925.63;5017768;28;1023;-78
2023/02/15 04:30:34;;;;;;;;;;;;;;;22.42;18.39;98929.38;5018067;28;921;-78
2023/02/15 04:32:59;;;;;;;;;;;;;;;23.00;18.04;98928.06;5034378;28;1293;-78
2023/02/15 04:35:25;;;;;;;;;;;;;;;22.76;18.09;98935.72;5015299;28;1711;-78
2023/02/15 04:37:51;;;;;;;;;;;;;;;22.80;17.97;98933.63;5013582;28;991;-78
2023/02/15 04:40:16;;;;;;;;;;;;;;;22.95;17.77;98939.06;5071160;28;1969;-78
2023/02/15 04:42:41;;;;;;;;;;;;;;;22.93;18.02;98947.22;5056503;28;892;-78
2023/02/15 04:45:07;;;;;;;;;;;;;;;23.21;17.76;98946.75;5059506;28;1929;-79
2023/02/15 04:47:32;;;;;;;;;;;;;;;23.24;17.51;98947.91;5056312;28;923;-79
2023/02/15 04:49:58;;;;;;;;;;;;;;;23.08;17.58;98954.28;5056296;28;953;-78
2023/02/15 04:52:23;;;;;;;;;;;;;;;23.63;17.40;98952.88;5056760;28;951;-79
2023/02/15 04:54:49;;;;;;;;;;;;;;;23.07;17.60;98944.16;5073726;28;2290;-79
2023/02/15 04:57:14;;;;;;;;;;;;;;;23.08;17.68;98957.09;5076106;28;945;-77
2023/02/15 04:59:40;;;;;;;;;;;;;;;23.34;17.31;98958.25;5076654;28;937;-78
2023/02/15 05:02:05;;;;;;;;;;;;;;;23.04;17.79;98964.88;5075985;28;995;-79
2023/02/15 05:04:30;;;;;;;;;;;;;;;23.01;17.66;98957.25;5075767;28;1977;-79
2023/02/15 05:06:56;;;;;;;;;;;;;;;20.91;18.21;98712.50;5076231;28;1059;-78
2023/02/15 05:09:21;;;;;;;;;;;;;;;22.81;18.02;98974.97;5074328;28;957;-79
2023/02/15 05:11:47;;;;;;;;;;;;;;;23.25;17.71;98975.84;5075374;28;980;-78
2023/02/15 05:14:12;;;;;;;;;;;;;;;22.93;18.04;98975.63;5074469;28;1069;-78
2023/02/15 05:16:38;;;;;;;;;;;;;;;22.66;18.14;98979.25;5075740;28;902;-79
2023/02/15 05:19:03;;;;;;;;;;;;;;;23.06;17.82;98982.28;5076128;28;990;-79
2023/02/15 05:21:28;;;;;;;;;;;;;;;22.93;17.71;98986.97;5076427;28;896;-78
2023/02/15 05:23:54;;;;;;;;;;;;;;;22.69;18.08;98986.09;5075649;28;1913;-78
2023/02/15 05:29:04;;;;;;;;;;;;;;;22.54;18.30;98999.72;5076143;28;955;-78
2023/02/15 05:31:30;;;;;;;;;;;;;;;22.24;18.70;99001.31;5075702;28;839;-78
2023/02/15 05:33:55;;;;;;;;;;;;;;;22.20;18.53;98992.06;5074260;28;992;-79
2023/02/15 05:36:20;;;;;;;;;;;;;;;22.26;18.72;99007.38;5075821;28;903;-79
2023/02/15 05:38:46;;;;;;;;;;;;;;;22.08;19.00;99001.09;5076070;28;918;-78
2023/02/15 05:41:11;;;;;;;;;;;;;;;21.99;19.03;99009.31;5075929;28;935;-79
2023/02/15 05:43:37;;;;;;;;;;;;;;;22.01;18.83;99012.53;5075799;28;1988;-78
2023/02/15 05:46:02;;;;;;;;;;;;;;;21.84;19.22;99020.81;5075733;28;944;-78
2023/02/15 05:48:28;;;;;;;;;;;;;;;22.21;18.41;99016.34;5077352;28;924;-79
2023/02/15 05:51:19;;;;;;;;;;;;;;;22.36;18.21;99029.09;5079581;28;934;-78
2023/02/15 05:53:45;;;;;;;;;;;;;;;22.25;18.60;99039.00;5040496;28;1132;-79
2023/02/15 05:56:10;;;;;;;;;;;;;;;22.73;18.26;99030.19;5057330;28;910;-79
2023/02/15 05:58:39;;;;;;;;;;;;;;;22.68;18.01;99032.72;5040357;28;997;-79
2023/02/15 06:01:11;;;;;;;;;;;;;;;22.25;18.39;99042.63;5041037;28;791;-78
2023/02/15 06:03:36;;;;;;;;;;;;;;;21.94;18.97;99047.41;5057068;28;1906;-79
2023/02/15 06:06:04;;;;;;;;;;;;;;;22.06;19.00;99046.84;5056866;28;1116;-79
2023/02/15 06:08:30;;;;;;;;;;;;;;;22.48;18.18;99049.59;5023719;28;950;-78
2023/02/15 06:10:55;;;;;;;;;;;;;;;22.73;18.09;99052.91;5057438;28;1122;-79
2023/02/15 06:13:21;;;;;;;;;;;;;;;22.73;17.88;99057.78;5056737;28;872;-79
2023/02/15 06:15:46;;;;;;;;;;;;;;;22.74;18.00;99054.53;5056932;28;940;-79
2023/02/15 06:18:12;;;;;;;;;;;;;;;22.38;18.16;99059.06;5040442;28;1031;-78
2023/02/15 06:20:37;;;;;;;;;;;;;;;22.04;18.65;99063.50;5040552;28;928;-79
2023/02/15 06:23:03;;;;;;;;;;;;;;;21.78;19.24;99062.16;5056393;28;1922;-79
2023/02/15 06:25:28;;;;;;;;;;;;;;;22.11;18.86;99062.63;5056500;28;969;-78
2023/02/15 06:27:54;;;;;;;;;;;;;;;22.38;18.53;99056.22;5056500;28;872;-79
2023/02/15 06:30:19;;;;;;;;;;;;;;;22.69;17.93;99066.34;5064825;28;1454;-79
2023/02/15 06:32:45;;;;;;;;;;;;;;;22.81;17.80;99059.28;5078967;28;814;-79
2023/02/15 06:35:11;;;;;;;;;;;;;;;22.33;18.39;99074.53;5078634;28;913;-79
2023/02/15 06:37:38;;;;;;;;;;;;;;;21.78;19.16;99062.16;5077589;28;1207;-79
2023/02/15 06:40:03;;;;;;;;;;;;;;;21.77;19.27;99071.91;5078648;28;885;-79
2023/02/15 06:42:29;;;;;;;;;;;;;;;22.61;18.17;99073.34;5079046;28;933;-79
2023/02/15 06:44:54;;;;;;;;;;;;;;;23.02;17.90;99080.91;5077511;28;1910;-79
2023/02/15 06:47:20;;;;;;;;;;;;;;;22.53;18.03;99077.50;5079021;28;997;-79
2023/02/15 06:49:45;;;;;;;;;;;;;;;22.34;18.36;99071.28;5078304;28;852;-79
2023/02/15 06:52:11;;;;;;;;;;;;;;;22.15;18.75;99073.94;5079041;28;1058;-79
2023/02/15 06:54:36;;;;;;;;;;;;;;;22.07;18.76;99073.16;5076476;28;906;-79
2023/02/15 06:57:02;;;;;;;;;;;;;;;21.38;19.60;99077.13;5078806;28;1000;-78
2023/02/15 06:59:27;;;;;;;;;;;;;;;21.73;19.11;99081.66;5076610;28;1091;-79
2023/02/15 07:01:53;;;;;;;;;;;;;;;22.16;19.02;99084.84;5078369;28;850;-79
2023/02/15 07:04:18;;;;;;;;;;;;;;;22.40;18.74;99090.66;5078407;28;1914;-79
2023/02/15 07:06:43;;;;;;;;;;;;;;;22.84;18.08;99093.28;5076228;28;1157;-79
2023/02/15 07:09:09;;;;;;;;;;;;;;;22.69;18.02;99086.22;5078477;28;842;-79
2023/02/15 07:14:18;;;;;;;;;;;;;;;22.77;18.17;99092.56;5078142;28;920;-80
2023/02/15 07:16:44;;;;;;;;;;;;;;;21.99;18.86;99105.66;5078358;28;931;-79
2023/02/15 07:19:09;;;;;;;;;;;;;;;21.90;18.92;99102.53;5078223;28;961;-79
2023/02/15 07:21:35;;;;;;;;;;;;;;;22.61;18.25;99107.38;5077128;28;926;-79
2023/02/15 07:24:00;;;;;;;;;;;;;;;22.42;18.73;99110.88;5077841;28;1979;-79
2023/02/15 07:26:26;;;;;;;;;;;;;;;22.15;18.67;99103.09;5078730;28;951;-79
2023/02/15 07:28:51;;;;;;;;;;;;;;;22.51;18.66;99116.84;5059522;28;938;-79
2023/02/15 07:31:17;;;;;;;;;;;;;;;21.73;19.36;99105.13;5078349;28;931;-79
2023/02/15 07:33:42;;;;;;;;;;;;;;;22.49;18.54;99110.78;5077845;28;880;-79
2023/02/15 07:36:11;;;;;;;;;;;;;;;22.40;18.61;99110.50;5078342;28;856;-79
2023/02/15 07:38:36;;;;;;;;;;;;;;;22.23;18.83;99110.28;5075770;28;1030;-79
2023/02/15 07:41:06;;;;;;;;;;;;;;;22.20;18.68;99110.31;5078097;28;874;-79
2023/02/15 07:43:32;;;;;;;;;;;;;;;22.53;18.52;99105.84;5077655;28;1914;-79
2023/02/15 07:46:02;;;;;;;;;;;;;;;22.40;18.41;99110.50;5076760;28;931;-79
2023/02/15 07:48:27;;;;;;;;;;;;;;;22.05;19.18;99103.97;5077680;28;813;-79
2023/02/15 07:50:53;;;;;;;;;;;;;;;22.18;19.04;99101.44;5077753;28;957;-79
2023/02/15 07:53:18;;;;;;;;;;;;;;;22.44;18.60;99108.44;5077576;28;877;-80
2023/02/15 07:55:43;;;;;;;;;;;;;;;22.15;18.74;99102.28;5077556;28;871;-79
2023/02/15 07:58:09;;;;;;;;;;;;;;;22.54;18.21;99105.47;5077430;28;973;-79
2023/02/15 08:00:56;;;;;;;;;;;;;;;22.59;18.52;99098.50;5058747;28;958;-79
2023/02/15 08:03:22;;;;;;;;;;;;;;;22.27;18.67;99105.38;5077202;28;1902;-79
2023/02/15 08:05:47;;;;;;;;;;;;;;;22.58;18.26;99105.38;5077388;28;1150;-79
2023/02/15 08:08:31;;;;;;;;;;;;;;;22.49;18.66;99108.75;5077918;28;874;-79
2023/02/15 08:13:53;;;;;;;;;;;;;;;22.42;18.53;99099.53;5077031;28;913;-79
2023/02/15 08:16:30;;;;;;;;;;;;;;;22.52;18.89;99107.09;5077296;28;1406;-79
2023/02/15 08:18:55;;;;;;;;;;;;;;;22.50;18.66;99106.72;5075840;28;886;-80
2023/02/15 08:21:21;;;;;;;;;;;;;;;22.82;18.21;99097.78;5075719;28;999;-79
2023/02/15 08:23:46;;;;;;;;;;;;;;;21.99;18.84;99105.66;5076861;28;1902;-79
2023/02/15 08:26:12;;;;;;;;;;;;;;;22.74;18.38;99105.59;5077200;28;907;-79
2023/02/15 08:28:37;;;;;;;;;;;;;;;22.28;18.69;99109.81;5076583;28;934;-79
2023/02/15 08:31:10;;;;;;;;;;;;;;;22.22;19.11;99110.69;5075986;28;917;-80
2023/02/15 08:33:36;;;;;;;;;;;;;;;22.82;18.16;99112.75;5076852;28;850;-79
2023/02/15 08:36:04;;;;;;;;;;;;;;;22.59;18.39;99109.84;5076593;28;890;-79
2023/02/15 08:38:29;;;;;;;;;;;;;;;22.65;18.25;99119.50;5076935;28;999;-79
2023/02/15 08:40:55;;;;;;;;;;;;;;;22.98;18.07;99114.19;5076762;28;837;-79
2023/02/15 08:43:20;;;;;;;;;;;;;;;23.03;17.92;99120.19;5076359;28;1902;-79
2023/02/15 08:45:46;;;;;;;;;;;;;;;22.59;18.29;99126.88;5076378;28;881;-80
2023/02/15 08:48:12;;;;;;;;;;;;;;;21.99;19.12;99117.00;5076863;28;1057;-79
2023/02/15 08:50:37;;;;;;;;;;;;;;;22.46;18.66;99122.97;5076416;28;1012;-79
2023/02/15 08:53:03;;;;;;;;;;;;;;;21.80;19.06;99116.38;5076622;28;776;-80
2023/02/15 08:55:29;;;;;;;;;;;;;;;22.36;19.01;99122.69;5076659;28;977;-79
2023/02/15 08:57:55;;;;;;;;;;;;;;;22.97;17.89;99116.25;5073539;28;1491;-80
2023/02/15 09:00:22;;;;;;;;;;;;;;;22.28;18.56;99118.34;5057171;28;914;-80
2023/02/15 09:02:47;;;;;;;;;;;;;;;21.99;19.16;99129.13;5033529;28;1054;-80
2023/02/15 09:05:13;;;;;;;;;;;;;;;22.55;18.57;99117.59;5033755;28;1905;-81
2023/02/15 09:07:38;;;;;;;;;;;;;;;22.65;18.55;99125.16;5000432;28;1204;-80
2023/02/15 09:10:04;;;;;;;;;;;;;;;22.70;18.14;99121.88;5000710;28;1230;-80
2023/02/15 09:12:30;;;;;;;;;;;;;;;22.56;18.71;99122.03;5033471;28;791;-79
2023/02/15 09:14:55;;;;;;;;;;;;;;;22.80;18.12;99103.09;5033328;28;849;-79
2023/02/15 09:17:21;;;;;;;;;;;;;;;22.33;18.65;99109.38;5033690;28;898;-80
2023/02/15 09:19:46;;;;;;;;;;;;;;;22.49;18.34;99119.31;5033262;28;957;-79
2023/02/15 09:22:11;;;;;;;;;;;;;;;22.56;18.45;99119.19;5033255;28;786;-79
2023/02/15 09:24:37;;;;;;;;;;;;;;;22.32;18.55;99112.59;5016529;28;1960;-80
2023/02/15 09:27:02;;;;;;;;;;;;;;;22.61;18.54;99118.72;5033489;28;794;-80
2023/02/15 09:29:28;;;;;;;;;;;;;;;22.82;18.15;99117.63;5048058;28;908;-79
2023/02/15 09:31:54;;;;;;;;;;;;;;;22.79;18.31;99102.25;5053042;28;886;-81
2023/02/15 09:34:20;;;;;;;;;;;;;;;22.68;18.27;99115.00;5052984;28;776;-80
2023/02/15 09:36:46;;;;;;;;;;;;;;;22.67;18.37;99117.03;5053329;28;727;-80
2023/02/15 09:39:15;;;;;;;;;;;;;;;22.33;18.45;99111.41;5038650;28;813;-80
2023/02/15 09:41:56;;;;;;;;;;;;;;;22.52;18.56;99121.28;5075681;28;782;-80
2023/02/15 09:44:40;;;;;;;;;;;;;;;23.06;17.68;99112.88;5075824;28;1906;-80
2023/02/15 09:47:06;;;;;;;;;;;;;;;22.39;18.68;99106.06;5075245;28;1090;-80
2023/02/15 09:49:40;;;;;;;;;;;;;;;22.67;18.37;99117.03;5075567;28;832;-80
2023/02/15 09:52:10;;;;;;;;;;;;;;;23.04;17.90;99118.16;5075560;28;782;-80
2023/02/15 09:54:36;;;;;;;;;;;;;;;22.85;18.11;99117.59;5035858;28;974;-80
2023/02/15 09:57:23;;;;;;;;;;;;;;;22.69;18.48;99117.44;5053176;28;847;-80
2023/02/15 10:00:07;;;;;;;;;;;;;;;22.81;18.06;99114.00;5036658;28;1061;-79
2023/02/15 10:03:00;;;;;;;;;;;;;;;22.57;18.48;99117.97;5053394;28;939;-80
2023/02/15 10:05:45;;;;;;;;;;;;;;;22.60;18.16;99108.63;5053271;28;1010;-80
2023/02/15 10:08:29;;;;;;;;;;;;;;;22.78;18.38;99106.31;5053117;28;971;-80
2023/02/15 10:10:57;;;;;;;;;;;;;;;22.31;18.63;99105.34;5053291;28;1140;-80
2023/02/15 10:13:33;;;;;;;;;;;;;;;23.11;17.79;99112.41;5036808;28;881;-80
2023/02/15 10:16:08;;;;;;;;;;;;;;;22.59;18.56;99110.66;5046739;28;1710;-79
2023/02/15 10:18:39;;;;;;;;;;;;;;;22.38;18.79;99110.09;5016463;28;940;-80
2023/02/15 10:21:10;;;;;;;;;;;;;;;22.49;18.67;99105.13;5017371;28;770;-80
2023/02/15 10:23:39;;;;;;;;;;;;;;;22.79;18.19;99102.25;5016574;28;1906;-80
2023/02/15 10:26:05;;;;;;;;;;;;;;;22.67;18.30;99100.00;5048361;28;894;-81
2023/02/15 10:28:46;;;;;;;;;;;;;;;23.36;17.36;99098.59;5055538;28;877;-80
2023/02/15 10:31:15;;;;;;;;;;;;;;;22.68;18.31;99098.78;5087399;28;883;-80
2023/02/15 10:33:41;;;;;;;;;;;;;;;22.95;18.01;99093.16;5069361;28;1238;-80
2023/02/15 10:36:19;;;;;;;;;;;;;;;22.35;18.94;99101.22;5056450;28;967;-80
2023/02/15 10:38:57;;;;;;;;;;;;;;;22.68;18.14;99090.25;5040246;28;911;-79
2023/02/15 10:41:34;;;;;;;;;;;;;;;22.76;18.37;99094.63;5076928;28;1084;-80
2023/02/15 10:44:03;;;;;;;;;;;;;;;22.60;18.24;99088.75;5076279;28;1973;-80
2023/02/15 10:46:36;;;;;;;;;;;;;;;22.52;18.41;99098.59;5059780;28;985;-80
2023/02/15 10:49:01;;;;;;;;;;;;;;;22.64;18.21;99092.38;5059721;28;984;-80
2023/02/15 10:51:27;;;;;;;;;;;;;;;22.99;18.10;99093.09;5076808;28;956;-80
2023/02/15 10:54:01;;;;;;;;;;;;;;;22.67;18.15;99088.66;5076496;28;945;-80
2023/02/15 10:56:29;;;;;;;;;;;;;;;22.71;17.95;99088.63;5076330;28;898;-80
2023/02/15 10:58:59;;;;;;;;;;;;;;;22.63;18.17;99083.03;5076115;28;1057;-80
2023/02/15 11:01:30;;;;;;;;;;;;;;;22.57;18.46;99086.78;5059712;28;946;-80
2023/02/15 11:04:17;;;;;;;;;;;;;;;22.31;18.63;99089.13;5076626;28;1984;-80
2023/02/15 11:06:48;;;;;;;;;;;;;;;22.46;18.72;99094.63;5077641;28;1056;-80
2023/02/15 11:09:15;;;;;;;;;;;;;;;22.77;18.08;99087.69;5078369;28;982;-80
2023/02/15 11:11:44;;;;;;;;;;;;;;;22.66;18.46;99092.72;5077461;28;901;-80
2023/02/15 11:14:12;;;;;;;;;;;;;;;22.63;18.16;99088.69;5077354;28;1000;-79
2023/02/15 11:16:39;;;;;;;;;;;;;;;22.87;18.09;99081.06;5077043;28;923;-80
2023/02/15 11:19:16;;;;;;;;;;;;;;;23.03;17.66;99074.78;5075382;28;952;-80
2023/02/15 11:21:52;;;;;;;;;;;;;;;22.94;18.04;99085.06;5075490;28;916;-80
2023/02/15 11:24:19;;;;;;;;;;;;;;;22.65;18.07;99085.44;5058951;28;1976;-80
2023/02/15 11:26:56;;;;;;;;;;;;;;;22.49;18.55;99094.59;5059430;28;997;-80
2023/02/15 11:29:23;;;;;;;;;;;;;;;23.04;17.60;99090.56;5042646;28;1056;-80
2023/02/15 11:31:59;;;;;;;;;;;;;;;22.53;18.40;99083.16;5059371;28;883;-80
2023/02/15 11:34:25;;;;;;;;;;;;;;;22.64;18.36;99083.84;5059054;28;1013;-80
2023/02/15 11:36:50;;;;;;;;;;;;;;;23.17;17.68;99082.28;5075593;28;1135;-80
2023/02/15 11:39:16;;;;;;;;;;;;;;;22.38;18.18;99081.75;5058657;28;1017;-77
2023/02/15 11:41:43;;;;;;;;;;;;;;;22.89;17.77;99083.50;5058971;28;943;-77
2023/02/15 11:44:12;;;;;;;;;;;;;;;23.00;17.88;99080.50;5058552;28;1960;-77
2023/02/15 11:46:37;;;;;;;;;;;;;;;22.68;18.09;99080.94;5075138;28;896;-78
2023/02/15 11:49:04;;;;;;;;;;;;;;;22.84;18.10;99076.25;5055146;28;981;-77
2023/02/15 11:51:29;;;;;;;;;;;;;;;22.76;18.19;99073.94;5038445;28;921;-77
2023/02/15 11:53:55;;;;;;;;;;;;;;;22.72;18.04;99074.00;5055724;28;945;-77
2023/02/15 11:56:24;;;;;;;;;;;;;;;23.14;17.48;99066.09;5038674;28;859;-77
2023/02/15 11:59:15;;;;;;;;;;;;;;;22.96;17.98;99065.59;5038613;28;863;-77
2023/02/15 12:01:42;;;;;;;;;;;;;;;23.28;17.39;99070.75;5034933;28;1055;-78
2023/02/15 12:04:07;;;;;;;;;;;;;;;22.67;18.15;99070.84;5018986;28;1914;-77
2023/02/15 12:06:34;;;;;;;;;;;;;;;22.69;18.37;99069.19;5034760;28;1064;-77
2023/02/15 12:08:59;;;;;;;;;;;;;;;22.95;17.89;99063.97;5034846;28;1005;-77
2023/02/15 12:11:37;;;;;;;;;;;;;;;23.04;17.58;99062.19;5034976;28;927;-77
2023/02/15 12:14:06;;;;;;;;;;;;;;;22.63;18.17;99060.31;5034547;28;985;-77
2023/02/15 12:16:34;;;;;;;;;;;;;;;22.68;17.96;99050.53;5018127;28;1006;-77
2023/02/15 12:19:00;;;;;;;;;;;;;;;22.62;17.99;99057.94;4977001;28;1167;-77
2023/02/15 12:21:26;;;;;;;;;;;;;;;22.21;18.54;99056.03;4995086;28;1046;-78
2023/02/15 12:23:52;;;;;;;;;;;;;;;22.24;18.69;99055.19;4995058;28;1906;-77
2023/02/15 12:26:47;;;;;;;;;;;;;;;22.16;18.46;99053.66;4995071;28;914;-77
2023/02/15 12:29:15;;;;;;;;;;;;;;;22.62;18.21;99057.94;4975574;28;1026;-77
2023/02/15 12:31:41;;;;;;;;;;;;;;;23.17;17.66;99053.88;4975610;28;1006;-78
2023/02/15 12:34:11;;;;;;;;;;;;;;;22.29;18.33;99051.09;4975499;28;991;-77
2023/02/15 12:36:50;;;;;;;;;;;;;;;22.36;18.10;99060.28;4991953;28;942;-77
2023/02/15 12:39:17;;;;;;;;;;;;;;;22.47;18.11;99053.69;4991804;28;1452;-77
2023/02/15 12:41:46;;;;;;;;;;;;;;;22.43;18.28;99047.25;4978606;28;1064;-77
2023/02/15 12:44:19;;;;;;;;;;;;;;;22.85;17.91;99049.50;4994803;28;1975;-77
2023/02/15 12:47:08;;;;;;;;;;;;;;;23.43;17.35;99037.22;4994665;28;953;-77
2023/02/15 12:49:33;;;;;;;;;;;;;;;23.06;17.67;99047.59;4955668;29;1062;-76
2023/02/15 12:52:00;;;;;;;;;;;;;;;22.66;17.74;99044.50;4956237;29;941;-77
2023/02/15 12:54:34;;;;;;;;;;;;;;;22.93;17.89;99038.06;4956178;29;970;-77
2023/02/15 12:56:59;;;;;;;;;;;;;;;23.05;17.47;99051.63;4969596;28;1157;-77
2023/02/15 12:59:25;;;;;;;;;;;;;;;22.65;18.00;99048.56;4974752;28;1379;-77
2023/02/15 13:01:51;;;;;;;;;;;;;;;22.87;17.78;99035.66;4975045;28;1031;-77
2023/02/15 13:04:26;;;;;;;;;;;;;;;22.85;17.88;99043.81;4975640;28;1997;-76
2023/02/15 13:06:53;;;;;;;;;;;;;;;22.81;17.62;99048.75;5016939;28;1211;-77
2023/02/15 13:09:25;;;;;;;;;;;;;;;22.62;18.03;99046.56;5033991;28;915;-77
2023/02/15 13:11:51;;;;;;;;;;;;;;;22.90;17.52;99047.41;5033860;28;1021;-77
2023/02/15 13:14:16;;;;;;;;;;;;;;;22.81;17.85;99037.38;5017240;28;907;-77
2023/02/15 13:16:41;;;;;;;;;;;;;;;23.06;17.54;99041.91;5033954;28;900;-77
2023/02/15 13:19:11;;;;;;;;;;;;;;;22.61;18.13;99042.16;5033689;28;889;-77
2023/02/15 13:21:37;;;;;;;;;;;;;;;22.30;18.43;99042.16;5017460;28;889;-77
2023/02/15 13:24:10;;;;;;;;;;;;;;;22.34;18.37;99040.06;5034035;28;1975;-78
2023/02/15 13:26:36;;;;;;;;;;;;;;;22.93;17.78;99027.50;5045829;28;1026;-77
2023/02/15 13:29:13;;;;;;;;;;;;;;;23.04;17.73;99038.69;5075591;28;905;-77
2023/02/15 13:31:38;;;;;;;;;;;;;;;23.03;17.80;99034.25;5075867;28;999;-76
2023/02/15 13:34:11;;;;;;;;;;;;;;;23.51;17.34;99044.38;5075877;28;1098;-77
2023/02/15 13:36:41;;;;;;;;;;;;;;;22.84;17.52;99047.88;5074930;28;964;-77